createdAt,value
2019-04-03T00:00:48.236Z,79.57
2019-04-03T00:01:48.242Z,79.57
2019-04-03T00:02:48.238Z,79.75
2019-04-03T00:03:48.175Z,80.13
2019-04-03T00:04:48.333Z,80.23
2019-04-03T00:05:48.214Z,80.42
2019-04-03T00:06:48.225Z,80.13
2019-04-03T00:07:48.239Z,80.33
2019-04-03T00:09:02.913Z,80.23
2019-04-03T00:09:48.286Z,80.42
2019-04-03T00:10:48.329Z,80.42
2019-04-03T00:11:48.305Z,80.42
2019-04-03T00:12:48.467Z,80.23
2019-04-03T00:13:48.340Z,79.94
2019-04-03T00:14:48.383Z,80.33
2019-04-03T00:15:48.390Z,80.23
2019-04-03T00:16:48.264Z,80.33
2019-04-03T00:17:48.821Z,80.13
2019-04-03T00:18:50.358Z,80.13
2019-04-03T00:19:50.425Z,79.85
2019-04-03T00:20:50.661Z,79.85
2019-04-03T00:22:49.726Z,79.85
2019-04-03T00:23:48.524Z,79.94
2019-04-03T00:25:03.211Z,80.23
2019-04-03T00:25:48.729Z,80.23
2019-04-03T00:26:48.597Z,79.94
2019-04-03T00:27:48.614Z,80.23
2019-04-03T00:28:48.719Z,80.46
2019-04-03T00:29:48.645Z,80.71
2019-04-03T00:30:48.648Z,80.42
2019-04-03T00:31:48.688Z,80.33
2019-04-03T00:32:48.733Z,80.71
2019-04-03T00:33:48.737Z,80.71
2019-04-03T00:34:48.740Z,80.8
2019-04-03T00:35:48.755Z,80.61
2019-04-03T00:36:48.924Z,80.36
2019-04-03T00:37:48.787Z,80.61
2019-04-03T00:38:49.010Z,80.84
2019-04-03T00:40:03.481Z,80.52
2019-04-03T00:40:48.853Z,80.61
2019-04-03T00:41:49.007Z,80.61
2019-04-03T00:42:48.884Z,80.94
2019-04-03T00:43:48.887Z,80.42
2019-04-03T00:44:48.922Z,80.71
2019-04-03T00:45:49.101Z,80.61
2019-04-03T00:46:48.957Z,80.42
2019-04-03T00:47:49.065Z,80.71
2019-04-03T00:48:48.982Z,80.8
2019-04-03T00:49:48.996Z,80.52
2019-04-03T00:50:49.033Z,80.71
2019-04-03T00:51:49.035Z,80.52
2019-04-03T00:53:49.073Z,80.9
2019-04-03T00:54:49.090Z,81.09
2019-04-03T00:55:49.106Z,80.9
2019-04-03T00:56:49.139Z,80.99
2019-04-03T00:57:49.264Z,80.8
2019-04-03T00:58:49.159Z,80.9
2019-04-03T00:59:49.191Z,80.99
2019-04-03T01:00:49.343Z,80.99
2019-04-03T01:01:49.232Z,81.56
2019-04-03T01:02:49.265Z,81.76
2019-04-03T01:03:49.362Z,81.47
2019-04-03T01:04:49.279Z,81.85
2019-04-03T01:05:49.304Z,82.04
2019-04-03T01:06:49.407Z,81.95
2019-04-03T01:07:49.456Z,82.42
2019-04-03T01:08:49.384Z,82.23
2019-04-03T01:09:49.611Z,82.23
2019-04-03T01:10:49.395Z,82.8
2019-04-03T01:12:04.154Z,82.32
2019-04-03T01:12:49.434Z,82.61
2019-04-03T01:13:49.434Z,82.51
2019-04-03T01:14:49.544Z,82.42
2019-04-03T01:15:49.485Z,82.8
2019-04-03T01:16:49.489Z,82.7
2019-04-03T01:17:49.500Z,82.9
2019-04-03T01:18:49.563Z,82.9
2019-04-03T01:19:49.536Z,82.99
2019-04-03T01:20:49.706Z,82.9
2019-04-03T01:21:49.722Z,83.09
2019-04-03T01:22:49.608Z,83.09
2019-04-03T01:24:49.786Z,82.8
2019-04-03T01:25:49.662Z,83.09
2019-04-03T01:26:49.667Z,83.47
2019-04-03T01:28:04.350Z,83.47
2019-04-03T01:28:49.717Z,83.75
2019-04-03T01:29:49.722Z,83.28
2019-04-03T01:30:49.750Z,83.75
2019-04-03T01:31:49.754Z,83.85
2019-04-03T01:33:49.857Z,84.09
2019-04-03T01:34:50.368Z,83.81
2019-04-03T01:35:50.417Z,83.81
2019-04-03T01:36:50.974Z,83.85
2019-04-03T01:37:51.950Z,83.52
2019-04-03T01:38:51.976Z,83.81
2019-04-03T01:39:52.815Z,83.9
2019-04-03T01:40:52.777Z,83.81
2019-04-03T01:41:51.360Z,83.71
2019-04-03T01:42:52.130Z,83.81
2019-04-03T01:44:04.637Z,83.9
2019-04-03T01:44:49.993Z,83.9
2019-04-03T01:45:50.025Z,83.85
2019-04-03T01:46:50.202Z,83.71
2019-04-03T01:47:50.080Z,84.09
2019-04-03T01:48:50.232Z,84.38
2019-04-03T01:49:50.126Z,84.28
2019-04-03T01:50:50.117Z,84.56
2019-04-03T01:51:50.136Z,84.56
2019-04-03T01:52:50.303Z,84.47
2019-04-03T01:53:50.164Z,84.47
2019-04-03T01:54:50.406Z,84.66
2019-04-03T01:55:50.205Z,84.38
2019-04-03T01:56:50.392Z,84.85
2019-04-03T01:57:50.242Z,84.56
2019-04-03T02:00:05.595Z,85.14
2019-04-03T02:00:50.315Z,84.76
2019-04-03T02:01:50.300Z,84.76
2019-04-03T02:02:50.315Z,85.33
2019-04-03T02:03:50.353Z,85.14
2019-04-03T02:04:50.369Z,85.14
2019-04-03T02:05:50.557Z,85.24
2019-04-03T02:06:50.389Z,85.24
2019-04-03T02:07:50.553Z,85.14
2019-04-03T02:08:50.419Z,85.24
2019-04-03T02:09:50.454Z,85.04
2019-04-03T02:10:51.388Z,85.04
2019-04-03T02:11:52.113Z,85.33
2019-04-03T02:12:53.066Z,85.24
2019-04-03T02:13:51.270Z,84.95
2019-04-03T02:15:05.297Z,85.8
2019-04-03T02:15:52.453Z,85.99
2019-04-03T02:16:52.960Z,85.71
2019-04-03T02:17:50.598Z,85.71
2019-04-03T02:18:50.669Z,85.52
2019-04-03T02:19:50.635Z,85.71
2019-04-03T02:20:50.637Z,85.61
2019-04-03T02:21:50.690Z,85.71
2019-04-03T02:22:50.690Z,85.71
2019-04-03T02:23:50.695Z,85.61
2019-04-03T02:24:50.705Z,85.99
2019-04-03T02:25:50.749Z,86.09
2019-04-03T02:27:50.817Z,85.9
2019-04-03T02:28:50.977Z,85.9
2019-04-03T02:29:50.800Z,85.99
2019-04-03T02:30:51.013Z,86.18
2019-04-03T02:31:55.170Z,86.18
2019-04-03T02:32:50.935Z,86.28
2019-04-03T02:33:50.975Z,86.18
2019-04-03T02:34:50.933Z,86.47
2019-04-03T02:35:51.221Z,86.76
2019-04-03T02:36:51.153Z,86.85
2019-04-03T02:37:52.895Z,86.85
2019-04-03T02:38:51.472Z,86.85
2019-04-03T02:39:51.200Z,86.76
2019-04-03T02:40:50.993Z,86.85
2019-04-03T02:42:51.244Z,87.52
2019-04-03T02:43:51.072Z,87.61
2019-04-03T02:44:54.156Z,87.42
2019-04-03T02:45:51.081Z,87.42
2019-04-03T02:47:05.765Z,87.38
2019-04-03T02:47:51.238Z,87.61
2019-04-03T02:48:51.387Z,87.23
2019-04-03T02:49:51.346Z,87.28
2019-04-03T02:50:51.186Z,87.32
2019-04-03T02:51:54.866Z,87.32
2019-04-03T02:52:51.232Z,87.42
2019-04-03T02:54:51.365Z,87.52
2019-04-03T02:56:51.510Z,87.52
2019-04-03T02:57:52.362Z,87.61
2019-04-03T02:58:53.894Z,87.61
2019-04-03T02:59:51.357Z,87.57
2019-04-03T03:00:51.853Z,87.52
2019-04-03T03:01:51.639Z,87.47
2019-04-03T03:03:06.136Z,87.19
2019-04-03T03:03:52.582Z,87.38
2019-04-03T03:04:54.550Z,87.95
2019-04-03T03:05:51.455Z,87.85
2019-04-03T03:06:51.543Z,87.66
2019-04-03T03:07:51.486Z,87.66
2019-04-03T03:08:51.491Z,88.23
2019-04-03T03:09:51.634Z,87.95
2019-04-03T03:10:54.950Z,88.42
2019-04-03T03:11:54.828Z,88.52
2019-04-03T03:12:51.580Z,88.9
2019-04-03T03:13:51.579Z,88.61
2019-04-03T03:14:51.743Z,88.8
2019-04-03T03:15:51.610Z,88.71
2019-04-03T03:16:53.277Z,88.8
2019-04-03T03:17:54.384Z,89
2019-04-03T03:19:06.327Z,89.47
2019-04-03T03:19:51.705Z,89.28
2019-04-03T03:20:51.865Z,89.85
2019-04-03T03:21:51.737Z,89.75
2019-04-03T03:22:53.166Z,89.85
2019-04-03T03:23:55.097Z,89.94
2019-04-03T03:24:51.951Z,90.14
2019-04-03T03:26:51.822Z,89.56
2019-04-03T03:27:52.156Z,90.14
2019-04-03T03:28:52.069Z,90.42
2019-04-03T03:31:07.981Z,89.47
2019-04-03T03:32:20.652Z,90.33
2019-04-03T03:34:08.170Z,90.23
2019-04-03T03:35:20.394Z,90.33
2019-04-03T03:36:06.993Z,90.33
2019-04-03T03:37:06.673Z,89.47
2019-04-03T03:38:08.785Z,90.33
2019-04-03T03:39:05.480Z,90.23
2019-04-03T03:40:20.258Z,90.23
2019-04-03T03:41:05.792Z,90.04
2019-04-03T03:42:05.420Z,89.75
2019-04-03T03:43:07.907Z,90.42
2019-04-03T03:44:07.477Z,90.23
2019-04-03T03:45:05.798Z,90.04
2019-04-03T03:46:05.906Z,89.75
2019-04-03T03:47:05.493Z,90.04
2019-04-03T03:48:09.094Z,90.04
2019-04-03T03:49:05.540Z,90.23
2019-04-03T03:50:05.559Z,90.23
2019-04-03T03:51:05.594Z,90.23
2019-04-03T03:52:07.771Z,90.42
2019-04-03T03:53:09.590Z,89.85
2019-04-03T03:54:05.621Z,90.23
2019-04-03T03:55:05.809Z,90.14
2019-04-03T03:56:20.552Z,90.04
2019-04-03T03:57:08.233Z,90.04
2019-04-03T03:58:05.691Z,90.52
2019-04-03T03:59:05.692Z,90.14
2019-04-03T04:00:05.802Z,90.42
2019-04-03T04:01:05.748Z,90.23
2019-04-03T04:02:08.264Z,90.23
2019-04-03T04:03:08.495Z,90.04
2019-04-03T04:04:05.840Z,90.04
2019-04-03T04:05:09.760Z,90.04
2019-04-03T04:07:06.981Z,89.94
2019-04-03T04:08:08.920Z,90.23
2019-04-03T04:09:05.994Z,90.33
2019-04-03T04:10:05.908Z,89.85
2019-04-03T04:11:20.560Z,90.33
2019-04-03T04:12:09.025Z,90.04
2019-04-03T04:14:06.374Z,90.61
2019-04-03T04:15:05.994Z,90.99
2019-04-03T04:16:07.401Z,91.18
2019-04-03T04:17:09.256Z,90.99
2019-04-03T04:18:06.329Z,90.99
2019-04-03T04:19:06.066Z,90.99
2019-04-03T04:21:09.322Z,91.56
2019-04-03T04:22:06.109Z,91.08
2019-04-03T04:23:06.255Z,90.8
2019-04-03T04:24:06.450Z,91.08
2019-04-03T04:25:06.378Z,90.99
2019-04-03T04:27:06.370Z,91.28
2019-04-03T04:28:08.252Z,91.18
2019-04-03T04:29:06.215Z,91.47
2019-04-03T04:30:06.373Z,91.04
2019-04-03T04:31:06.489Z,91.47
2019-04-03T04:32:06.277Z,91.75
2019-04-03T04:33:06.691Z,91.66
2019-04-03T04:34:06.592Z,91.66
2019-04-03T04:35:06.312Z,91.56
2019-04-03T04:36:06.335Z,91.61
2019-04-03T04:37:06.451Z,91.52
2019-04-03T04:38:06.440Z,91.52
2019-04-03T04:39:06.187Z,92.03
2019-04-03T04:41:06.434Z,91.85
2019-04-03T04:42:07.119Z,92.13
2019-04-03T04:43:21.112Z,92.61
2019-04-03T04:44:07.780Z,92.61
2019-04-03T04:45:06.503Z,91.8
2019-04-03T04:46:08.925Z,91.94
2019-04-03T04:47:06.518Z,91.94
2019-04-03T04:48:06.715Z,91.85
2019-04-03T04:49:06.558Z,91.75
2019-04-03T04:50:06.664Z,92.03
2019-04-03T04:51:06.588Z,91.75
2019-04-03T04:52:06.920Z,92.03
2019-04-03T04:53:06.642Z,92.03
2019-04-03T04:54:06.656Z,92.13
2019-04-03T04:56:08.734Z,91.56
2019-04-03T04:57:06.858Z,91.08
2019-04-03T04:58:07.413Z,91.28
2019-04-03T04:59:21.390Z,91.56
2019-04-03T05:00:06.751Z,91.47
2019-04-03T05:01:06.953Z,91.47
2019-04-03T05:02:06.815Z,91.47
2019-04-03T05:03:06.820Z,91.08
2019-04-03T05:04:06.820Z,90.99
2019-04-03T05:05:08.771Z,91.75
2019-04-03T05:06:06.846Z,91.56
2019-04-03T05:07:07.110Z,91.75
2019-04-03T05:08:06.913Z,91.66
2019-04-03T05:09:06.916Z,91.85
2019-04-03T05:10:08.846Z,91.47
2019-04-03T05:11:09.401Z,91.56
2019-04-03T05:12:09.188Z,91.66
2019-04-03T05:13:06.973Z,91.56
2019-04-03T05:14:07.008Z,91.18
2019-04-03T05:15:23.385Z,91.28
2019-04-03T05:16:07.336Z,91.18
2019-04-03T05:17:07.039Z,90.61
2019-04-03T05:18:07.175Z,90.14
2019-04-03T05:19:18.284Z,90.14
2019-04-03T05:20:07.097Z,89.56
2019-04-03T05:21:07.123Z,90.14
2019-04-03T05:22:07.158Z,89.47
2019-04-03T05:23:07.262Z,90.42
2019-04-03T05:24:14.412Z,89.66
2019-04-03T05:25:07.498Z,90.42
2019-04-03T05:26:07.215Z,89.56
2019-04-03T05:27:10.313Z,89.47
2019-04-03T05:28:07.269Z,90.14
2019-04-03T05:29:07.496Z,90.23
2019-04-03T05:30:08.968Z,90.04
2019-04-03T05:31:22.208Z,90.04
2019-04-03T05:32:09.474Z,89.66
2019-04-03T05:34:07.336Z,90.42
2019-04-03T05:35:07.373Z,89.85
2019-04-03T05:36:07.374Z,89.85
2019-04-03T05:37:07.547Z,89.94
2019-04-03T05:38:07.406Z,89.47
2019-04-03T05:39:07.444Z,89.66
2019-04-03T05:40:07.454Z,89.56
2019-04-03T05:41:07.464Z,89.89
2019-04-03T05:42:07.478Z,89.7
2019-04-03T05:44:07.529Z,89.47
2019-04-03T05:45:07.531Z,89.42
2019-04-03T05:46:22.217Z,89.32
2019-04-03T05:47:10.012Z,89.61
2019-04-03T05:49:07.676Z,89.14
2019-04-03T05:50:07.790Z,89.23
2019-04-03T05:51:07.640Z,89.42
2019-04-03T05:52:08.009Z,89.32
2019-04-03T05:53:09.145Z,88.85
2019-04-03T05:54:09.880Z,88.85
2019-04-03T05:55:09.303Z,88.66
2019-04-03T05:56:07.741Z,88.18
2019-04-03T05:57:07.761Z,88.28
2019-04-03T05:58:07.889Z,87.8
2019-04-03T05:59:07.798Z,87.9
2019-04-03T06:00:09.721Z,87.61
2019-04-03T06:01:11.337Z,87.04
2019-04-03T06:02:20.336Z,87.32
2019-04-03T06:03:08.144Z,87.42
2019-04-03T06:04:09.690Z,87.85
2019-04-03T06:05:11.353Z,86.61
2019-04-03T06:06:07.931Z,86.8
2019-04-03T06:07:08.082Z,86.22
2019-04-03T06:08:08.053Z,86.32
2019-04-03T06:09:08.177Z,86.04
2019-04-03T06:10:07.982Z,85.28
2019-04-03T06:11:10.748Z,86.13
2019-04-03T06:12:13.362Z,85.66
2019-04-03T06:13:08.967Z,85.66
2019-04-03T06:14:11.023Z,84.99
2019-04-03T06:15:10.132Z,85.18
2019-04-03T06:16:08.441Z,85.08
2019-04-03T06:17:08.135Z,84.75
2019-04-03T06:18:25.607Z,84.65
2019-04-03T06:20:10.839Z,83.98
2019-04-03T06:21:08.315Z,83.89
2019-04-03T06:22:09.920Z,83.89
2019-04-03T06:23:08.237Z,83.89
2019-04-03T06:24:08.379Z,83.8
2019-04-03T06:25:12.581Z,83.61
2019-04-03T06:26:08.318Z,83.03
2019-04-03T06:27:10.494Z,83.13
2019-04-03T06:29:10.462Z,82.12
2019-04-03T06:30:08.700Z,81.84
2019-04-03T06:31:11.013Z,81.55
2019-04-03T06:32:08.879Z,80.73
2019-04-03T06:33:08.431Z,80.64
2019-04-03T06:34:23.098Z,80.44
2019-04-03T06:35:08.727Z,80.35
2019-04-03T06:36:08.796Z,80.07
2019-04-03T06:37:08.538Z,80.35
2019-04-03T06:38:08.533Z,79.49
2019-04-03T06:39:08.893Z,79.4
2019-04-03T06:40:08.701Z,78.39
2019-04-03T06:41:11.144Z,78.77
2019-04-03T06:42:08.631Z,78.3
2019-04-03T06:43:08.820Z,78.1
2019-04-03T06:44:08.641Z,77.91
2019-04-03T06:45:08.682Z,77.72
2019-04-03T06:46:08.693Z,78.1
2019-04-03T06:48:08.755Z,77.72
2019-04-03T06:49:11.241Z,78.01
2019-04-03T06:50:23.631Z,78.1
2019-04-03T06:51:08.787Z,78.2
2019-04-03T06:52:08.905Z,77.91
2019-04-03T06:53:08.853Z,76.86
2019-04-03T06:54:10.597Z,76.52
2019-04-03T06:56:11.438Z,75.51
2019-04-03T06:57:08.964Z,74.93
2019-04-03T06:59:08.961Z,72.68
2019-04-03T07:00:09.068Z,73.07
2019-04-03T07:01:09.011Z,72.97
2019-04-03T07:02:09.262Z,72.68
2019-04-03T07:03:09.051Z,72.68
2019-04-03T07:04:09.661Z,71.67
2019-04-03T07:06:24.009Z,69.66
2019-04-03T07:08:09.374Z,69.95
2019-04-03T07:09:21.017Z,69.27
2019-04-03T07:10:23.287Z,69.47
2019-04-03T07:12:09.257Z,69.02
2019-04-03T07:13:09.301Z,68.26
2019-04-03T07:14:09.304Z,67.78
2019-04-03T07:15:09.350Z,67.88
2019-04-03T07:17:09.689Z,67.88
2019-04-03T07:18:09.692Z,67.21
2019-04-03T07:19:11.037Z,66.38
2019-04-03T07:20:19.894Z,66.57
2019-04-03T07:21:27.083Z,66.09
2019-04-03T07:22:09.732Z,66
2019-04-03T07:23:09.662Z,66
2019-04-03T07:24:09.716Z,65.81
2019-04-03T07:25:09.629Z,66.32
2019-04-03T07:26:09.844Z,65.08
2019-04-03T07:27:09.645Z,65.45
2019-04-03T07:28:11.914Z,65.45
2019-04-03T07:29:11.364Z,64.4
2019-04-03T07:30:09.686Z,63.39
2019-04-03T07:31:09.822Z,63.29
2019-04-03T07:32:09.736Z,64.34
2019-04-03T07:34:09.805Z,63.39
2019-04-03T07:35:12.320Z,63.1
2019-04-03T07:36:13.175Z,63.29
2019-04-03T07:37:09.888Z,63.1
2019-04-03T07:38:10.131Z,63.1
2019-04-03T07:39:13.014Z,63.19
2019-04-03T07:40:10.132Z,62.43
2019-04-03T07:41:09.974Z,61.79
2019-04-03T07:42:09.985Z,61.5
2019-04-03T07:43:10.020Z,60.64
2019-04-03T07:44:10.051Z,60.64
2019-04-03T07:45:10.231Z,60.67
2019-04-03T07:46:10.078Z,59.8
2019-04-03T07:47:10.103Z,59.9
2019-04-03T07:48:10.219Z,59.8
2019-04-03T07:49:13.837Z,59.42
2019-04-03T07:50:13.157Z,59.23
2019-04-03T07:51:12.441Z,59.42
2019-04-03T07:52:12.544Z,58.87
2019-04-03T07:53:25.116Z,59.06
2019-04-03T07:54:10.473Z,58.69
2019-04-03T07:55:10.367Z,58.11
2019-04-03T07:56:10.334Z,58.01
2019-04-03T07:57:16.060Z,58.39
2019-04-03T07:58:10.476Z,57.95
2019-04-03T07:59:10.749Z,57.75
2019-04-03T08:00:10.428Z,57.75
2019-04-03T08:01:14.117Z,56.51
2019-04-03T08:03:10.648Z,56.53
2019-04-03T08:04:10.544Z,55.29
2019-04-03T08:05:10.731Z,55.86
2019-04-03T08:06:10.613Z,55.96
2019-04-03T08:07:10.617Z,55.29
2019-04-03T08:08:10.896Z,55.45
2019-04-03T08:09:25.321Z,55.47
2019-04-03T08:10:10.682Z,56.15
2019-04-03T08:11:10.703Z,54.8
2019-04-03T08:12:10.747Z,54.9
2019-04-03T08:13:10.935Z,55.1
2019-04-03T08:14:12.343Z,55.93
2019-04-03T08:15:12.457Z,56.31
2019-04-03T08:16:11.010Z,56.48
2019-04-03T08:17:11.210Z,57.34
2019-04-03T08:18:10.885Z,57.43
2019-04-03T08:19:11.225Z,57.24
2019-04-03T08:20:10.946Z,56.86
2019-04-03T08:21:10.974Z,56.12
2019-04-03T08:24:11.175Z,55.29
2019-04-03T08:25:25.717Z,54.78
2019-04-03T08:26:13.877Z,54.61
2019-04-03T08:27:11.609Z,56.05
2019-04-03T08:28:11.146Z,55.1
2019-04-03T08:29:11.154Z,54.52
2019-04-03T08:30:11.346Z,54.9
2019-04-03T08:31:14.204Z,54.8
2019-04-03T08:32:11.237Z,54.61
2019-04-03T08:34:18.841Z,53.97
2019-04-03T08:36:23.016Z,54.19
2019-04-03T08:37:13.109Z,53.52
2019-04-03T08:38:14.118Z,52.46
2019-04-03T08:40:11.721Z,52.68
2019-04-03T08:41:26.125Z,51.62
2019-04-03T08:42:11.637Z,51.74
2019-04-03T08:43:11.830Z,52.1
2019-04-03T08:44:11.735Z,52.03
2019-04-03T08:45:11.733Z,50.59
2019-04-03T08:46:13.504Z,50.68
2019-04-03T08:47:13.593Z,50.49
2019-04-03T08:48:11.652Z,50.56
2019-04-03T08:49:11.751Z,51.91
2019-04-03T08:50:11.720Z,51.81
2019-04-03T08:51:12.111Z,51.33
2019-04-03T08:52:14.182Z,51.45
2019-04-03T08:53:12.002Z,51.55
2019-04-03T08:55:15.931Z,50.78
2019-04-03T08:56:26.507Z,50.51
2019-04-03T08:57:11.636Z,49.65
2019-04-03T08:58:11.893Z,50.23
2019-04-03T08:59:15.249Z,49.65
2019-04-03T09:00:11.970Z,49.27
2019-04-03T09:01:13.641Z,49.74
2019-04-03T09:02:15.278Z,49.55
2019-04-03T09:03:12.224Z,49.46
2019-04-03T09:04:12.049Z,49.94
2019-04-03T09:05:14.003Z,49.55
2019-04-03T09:06:12.351Z,49.1
2019-04-03T09:07:12.320Z,48.49
2019-04-03T09:09:12.195Z,48.4
2019-04-03T09:11:12.235Z,48.97
2019-04-03T09:13:23.219Z,48.59
2019-04-03T09:14:12.330Z,48.4
2019-04-03T09:15:12.495Z,48.79
2019-04-03T09:16:13.378Z,48.21
2019-04-03T09:17:12.409Z,48.81
2019-04-03T09:18:12.418Z,48.59
2019-04-03T09:19:13.277Z,48.88
2019-04-03T09:21:12.813Z,48.61
2019-04-03T09:22:12.517Z,50.15
2019-04-03T09:23:12.614Z,49
2019-04-03T09:24:12.728Z,49.22
2019-04-03T09:25:15.805Z,48.44
2019-04-03T09:26:12.625Z,47.41
2019-04-03T09:27:12.996Z,47.12
2019-04-03T09:28:27.434Z,46.55
2019-04-03T09:29:15.442Z,45.97
2019-04-03T09:30:15.372Z,46.14
2019-04-03T09:31:12.810Z,47.77
2019-04-03T09:32:12.777Z,48.35
2019-04-03T09:33:12.827Z,47.58
2019-04-03T09:34:12.831Z,47.36
2019-04-03T09:35:12.875Z,48.61
2019-04-03T09:36:12.891Z,47.75
2019-04-03T09:37:13.133Z,46.81
2019-04-03T09:38:13.393Z,47.39
2019-04-03T09:39:15.863Z,46.88
2019-04-03T09:40:13.006Z,46.59
2019-04-03T09:41:13.404Z,46.71
2019-04-03T09:42:13.049Z,46.5
2019-04-03T09:43:12.835Z,46.69
2019-04-03T09:44:27.754Z,46.21
2019-04-03T09:45:13.139Z,46.11
2019-04-03T09:46:13.407Z,47.49
2019-04-03T09:47:13.171Z,46.14
2019-04-03T09:48:14.772Z,46.62
2019-04-03T09:49:13.235Z,45.65
2019-04-03T09:50:16.278Z,45.65
2019-04-03T09:51:13.274Z,45.75
2019-04-03T09:52:13.299Z,45.1
2019-04-03T09:53:13.321Z,45.36
2019-04-03T09:54:13.990Z,46.14
2019-04-03T09:57:13.487Z,45.1
2019-04-03T09:58:13.657Z,45.1
2019-04-03T09:59:15.297Z,44.9
2019-04-03T10:00:28.205Z,45.29
2019-04-03T10:01:18.899Z,45.1
2019-04-03T10:02:13.762Z,45.89
2019-04-03T10:03:13.581Z,44.27
2019-04-03T10:04:13.623Z,43.21
2019-04-03T10:06:13.994Z,43.02
2019-04-03T10:07:14.294Z,44.15
2019-04-03T10:09:14.976Z,42.66
2019-04-03T10:10:16.503Z,43.62
2019-04-03T10:11:19.481Z,43.41
2019-04-03T10:13:13.857Z,42.35
2019-04-03T10:14:14.085Z,43.12
2019-04-03T10:15:14.157Z,42.54
2019-04-03T10:16:28.626Z,41.5
2019-04-03T10:17:14.263Z,40.92
2019-04-03T10:18:14.395Z,42.27
2019-04-03T10:19:16.419Z,43.21
2019-04-03T10:20:15.009Z,43.38
2019-04-03T10:21:14.061Z,43.19
2019-04-03T10:22:14.307Z,43.55
2019-04-03T10:24:14.275Z,43.55
2019-04-03T10:25:14.153Z,43.55
2019-04-03T10:26:14.603Z,44.49
2019-04-03T10:27:14.530Z,44.98
2019-04-03T10:29:14.410Z,44.21
2019-04-03T10:30:14.605Z,44.11
2019-04-03T10:31:29.310Z,46.81
2019-04-03T10:32:14.345Z,46.14
2019-04-03T10:34:17.098Z,46.42
2019-04-03T10:35:14.415Z,45.84
2019-04-03T10:36:17.460Z,44.98
2019-04-03T10:37:17.448Z,46.33
2019-04-03T10:38:16.102Z,46.23
2019-04-03T10:39:14.853Z,47.19
2019-04-03T10:40:14.561Z,46.62
2019-04-03T10:41:14.576Z,45.29
2019-04-03T10:42:14.931Z,45
2019-04-03T10:44:14.986Z,44.9
2019-04-03T10:45:14.956Z,45.2
2019-04-03T10:46:14.703Z,45.58
2019-04-03T10:47:15.183Z,45.48
2019-04-03T10:48:14.750Z,45.46
2019-04-03T10:49:15.082Z,46.64
2019-04-03T10:50:15.063Z,46.64
2019-04-03T10:51:15.191Z,47.03
2019-04-03T10:52:16.671Z,45.48
2019-04-03T10:53:14.876Z,45
2019-04-03T10:54:15.187Z,45.77
2019-04-03T10:55:14.946Z,46.55
2019-04-03T10:56:14.970Z,44.54
2019-04-03T10:57:15.222Z,44.25
2019-04-03T10:58:15.003Z,44.52
2019-04-03T10:59:18.659Z,44.71
2019-04-03T11:00:15.056Z,45.2
2019-04-03T11:01:15.101Z,44.81
2019-04-03T11:02:15.528Z,44.52
2019-04-03T11:03:29.796Z,44.23
2019-04-03T11:04:15.493Z,45.48
2019-04-03T11:05:15.281Z,45.68
2019-04-03T11:06:15.253Z,44.71
2019-04-03T11:07:14.983Z,44.59
2019-04-03T11:08:15.271Z,45.36
2019-04-03T11:10:15.839Z,46.04
2019-04-03T11:11:15.345Z,47.58
2019-04-03T11:12:15.353Z,45.68
2019-04-03T11:13:15.737Z,45.48
2019-04-03T11:14:15.551Z,44.62
2019-04-03T11:15:15.798Z,44.23
2019-04-03T11:16:17.300Z,43.75
2019-04-03T11:17:17.562Z,43.75
2019-04-03T11:18:15.521Z,44.13
2019-04-03T11:19:30.192Z,43.94
2019-04-03T11:20:15.552Z,43.94
2019-04-03T11:21:15.931Z,43.58
2019-04-03T11:22:18.191Z,43.07
2019-04-03T11:23:15.636Z,43.37
2019-04-03T11:24:15.814Z,43.17
2019-04-03T11:25:17.830Z,45
2019-04-03T11:26:17.594Z,44.32
2019-04-03T11:27:15.750Z,44.81
2019-04-03T11:28:16.457Z,44.62
2019-04-03T11:29:16.281Z,44.52
2019-04-03T11:30:23.962Z,44.04
2019-04-03T11:31:29.559Z,44.52
2019-04-03T11:32:16.507Z,44.04
2019-04-03T11:33:16.515Z,44.04
2019-04-03T11:34:19.531Z,44.32
2019-04-03T11:35:30.605Z,44.81
2019-04-03T11:36:15.963Z,45.58
2019-04-03T11:37:16.278Z,45.48
2019-04-03T11:40:18.045Z,46.81
2019-04-03T11:41:22.849Z,47.19
2019-04-03T11:42:29.286Z,47.1
2019-04-03T11:43:16.119Z,46.81
2019-04-03T11:44:16.283Z,46.81
2019-04-03T11:45:16.179Z,47.39
2019-04-03T11:46:16.282Z,47.1
2019-04-03T11:47:16.697Z,47.17
2019-04-03T11:48:19.206Z,47.17
2019-04-03T11:49:17.721Z,47.75
2019-04-03T11:50:16.714Z,47.75
2019-04-03T11:51:33.368Z,48.06
2019-04-03T11:52:16.522Z,47.39
2019-04-03T11:53:16.367Z,47.49
2019-04-03T11:54:16.510Z,47.19
2019-04-03T11:55:16.626Z,47.19
2019-04-03T11:56:16.917Z,47.87
2019-04-03T11:57:19.696Z,47.19
2019-04-03T11:58:17.946Z,47.19
2019-04-03T11:59:16.518Z,47.27
2019-04-03T12:00:16.771Z,47.46
2019-04-03T12:01:18.638Z,47.46
2019-04-03T12:02:16.584Z,47.85
2019-04-03T12:03:16.688Z,47.49
2019-04-03T12:04:16.907Z,47.67
2019-04-03T12:05:20.857Z,47.77
2019-04-03T12:06:31.346Z,48.74
2019-04-03T12:07:16.492Z,48.16
2019-04-03T12:08:17.072Z,47.6
2019-04-03T12:09:16.774Z,47.22
2019-04-03T12:10:17.039Z,47.6
2019-04-03T12:11:17.099Z,47.6
2019-04-03T12:12:17.310Z,47.22
2019-04-03T12:14:19.223Z,48.38
2019-04-03T12:15:21.065Z,47.22
2019-04-03T12:16:17.646Z,47.19
2019-04-03T12:18:17.298Z,47.29
2019-04-03T12:19:17.407Z,47.58
2019-04-03T12:20:18.711Z,47.77
2019-04-03T12:21:20.754Z,47.77
2019-04-03T12:24:17.439Z,47.1
2019-04-03T12:25:17.626Z,47
2019-04-03T12:26:19.793Z,47.65
2019-04-03T12:27:17.695Z,48.25
2019-04-03T12:28:20.226Z,47.67
2019-04-03T12:29:17.257Z,47.67
2019-04-03T12:30:17.538Z,47.67
2019-04-03T12:31:17.313Z,47.65
2019-04-03T12:32:17.434Z,47.75
2019-04-03T12:33:18.826Z,47.56
2019-04-03T12:34:17.461Z,47.85
2019-04-03T12:35:17.501Z,47.46
2019-04-03T12:36:17.454Z,47.27
2019-04-03T12:37:20.611Z,48.03
2019-04-03T12:38:32.125Z,47.92
2019-04-03T12:39:17.834Z,48.02
2019-04-03T12:40:17.521Z,48.49
2019-04-03T12:41:17.841Z,48.21
2019-04-03T12:42:19.967Z,48.49
2019-04-03T12:43:17.827Z,48.69
2019-04-03T12:44:18.898Z,49.55
2019-04-03T12:45:20.586Z,48.59
2019-04-03T12:46:17.666Z,49.46
2019-04-03T12:47:17.679Z,48.69
2019-04-03T12:48:20.664Z,48.85
2019-04-03T12:49:17.720Z,49.33
2019-04-03T12:50:17.765Z,49.65
2019-04-03T12:51:20.177Z,49.07
2019-04-03T12:52:17.809Z,49.65
2019-04-03T12:53:19.589Z,48.79
2019-04-03T12:54:32.509Z,48.88
2019-04-03T12:55:18.272Z,48.88
2019-04-03T12:56:17.894Z,49.43
2019-04-03T12:57:18.078Z,48.59
2019-04-03T12:58:18.003Z,49.17
2019-04-03T12:59:20.174Z,49.36
2019-04-03T13:00:18.485Z,48.88
2019-04-03T13:01:20.848Z,49.46
2019-04-03T13:02:18.997Z,48.88
2019-04-03T13:03:18.175Z,49.55
2019-04-03T13:04:18.099Z,49.07
2019-04-03T13:05:18.480Z,49.27
2019-04-03T13:06:18.141Z,48.79
2019-04-03T13:07:18.618Z,48.59
2019-04-03T13:08:20.668Z,48.59
2019-04-03T13:09:18.552Z,48.88
2019-04-03T13:10:40.525Z,48.88
2019-04-03T13:11:21.419Z,49.17
2019-04-03T13:12:21.481Z,48.69
2019-04-03T13:14:27.643Z,48.3
2019-04-03T13:15:18.468Z,48.52
2019-04-03T13:16:21.148Z,49
2019-04-03T13:17:18.404Z,48.43
2019-04-03T13:18:18.797Z,48.4
2019-04-03T13:19:18.935Z,49.27
2019-04-03T13:20:18.469Z,48.4
2019-04-03T13:21:18.811Z,48.4
2019-04-03T13:22:20.654Z,48.69
2019-04-03T13:23:18.531Z,48.52
2019-04-03T13:24:20.216Z,48.71
2019-04-03T13:25:20.592Z,48.23
2019-04-03T13:26:33.268Z,47.94
2019-04-03T13:27:19.143Z,48.33
2019-04-03T13:28:18.675Z,48.23
2019-04-03T13:29:20.740Z,47.85
2019-04-03T13:30:19.112Z,47.08
2019-04-03T13:31:18.512Z,47.49
2019-04-03T13:32:21.940Z,47.29
2019-04-03T13:33:20.190Z,47.29
2019-04-03T13:34:19.005Z,47
2019-04-03T13:35:19.649Z,46.62
2019-04-03T13:36:23.490Z,47
2019-04-03T13:37:22.008Z,47
2019-04-03T13:38:18.907Z,46.73
2019-04-03T13:39:19.015Z,47.1
2019-04-03T13:40:19.129Z,46.42
2019-04-03T13:41:34.747Z,46.45
2019-04-03T13:42:19.113Z,46.71
2019-04-03T13:43:22.661Z,47
2019-04-03T13:44:19.235Z,47.39
2019-04-03T13:45:19.500Z,47.87
2019-04-03T13:46:19.082Z,48.16
2019-04-03T13:47:19.518Z,48.16
2019-04-03T13:48:19.131Z,47.49
2019-04-03T13:49:20.847Z,47.85
2019-04-03T13:50:21.583Z,48.71
2019-04-03T13:51:19.207Z,47.94
2019-04-03T13:52:19.247Z,48.03
2019-04-03T13:53:24.946Z,48.43
2019-04-03T13:54:19.612Z,48.61
2019-04-03T13:55:19.701Z,48.71
2019-04-03T13:56:22.603Z,48.81